Time;durP1;ratioP1;P1;durP2;ratioP2;P2;SDS_P1;SDS_P2;PMS_P1;PMS_P2;Temp;Humidity;BMP_temperature;BMP_pressure;BME280_temperature;BME280_humidity;BME280_pressure;Samples;Min_cycle;Max_cycle;Signal;HPM_P1;HPM_P2
2023/04/04 00:01:32;;;;;;;;;;;5.50;65.10;;;;;;5049536;28;19939;-77
2023/04/04 00:03:58;;;;;;;;;;;5.40;65.00;;;;;;5051425;28;19928;-76
2023/04/04 00:06:25;;;;;;;;;;;5.40;65.10;;;;;;5052320;28;19955;-74
2023/04/04 00:08:53;;;;;;;;;;;5.40;65.30;;;;;;5051462;28;19932;-76
2023/04/04 00:11:20;;;;;;;;;;;5.40;65.30;;;;;;5052093;28;19932;-77
2023/04/04 00:13:47;;;;;;;;;;;5.30;65.20;;;;;;5050781;28;19933;-76
2023/04/04 00:16:14;;;;;;;;;;;5.30;65.20;;;;;;5046609;28;19933;-77
2023/04/04 00:18:40;;;;;;;;;;;5.30;65.30;;;;;;5055039;28;19978;-77
2023/04/04 00:21:07;;;;;;;;;;;5.30;65.40;;;;;;5050466;28;19928;-77
2023/04/04 00:23:33;;;;;;;;;;;5.30;65.50;;;;;;5052243;28;19963;-76
2023/04/04 00:26:01;;;;;;;;;;;5.20;65.50;;;;;;5060360;28;20043;-76
2023/04/04 00:28:27;;;;;;;;;;;5.20;65.60;;;;;;5057894;28;20518;-76
2023/04/04 00:30:54;;;;;;;;;;;5.20;65.70;;;;;;5052559;28;19928;-77
2023/04/04 00:33:21;;;;;;;;;;;5.20;65.70;;;;;;5051468;28;19936;-76
2023/04/04 00:35:48;;;;;;;;;;;5.20;65.80;;;;;;5058433;28;20054;-75
2023/04/04 00:38:14;;;;;;;;;;;5.10;65.80;;;;;;5059956;28;20028;-76
2023/04/04 00:40:42;;;;;;;;;;;5.10;66.00;;;;;;5059246;28;20218;-75
2023/04/04 00:43:10;;;;;;;;;;;5.10;66.20;;;;;;5056338;28;20593;-77
2023/04/04 00:45:37;;;;;;;;;;;5.10;66.10;;;;;;5057403;28;19954;-77
2023/04/04 00:48:03;;;;;;;;;;;5.00;66.10;;;;;;5056332;28;19928;-76
2023/04/04 00:50:31;;;;;;;;;;;5.00;66.10;;;;;;5053283;28;19932;-77
2023/04/04 00:52:57;;;;;;;;;;;5.00;66.10;;;;;;5054668;28;19935;-77
2023/04/04 00:55:24;;;;;;;;;;;5.00;66.30;;;;;;5054468;28;19933;-77
2023/04/04 00:57:51;;;;;;;;;;;4.90;66.20;;;;;;5054587;28;19929;-75
2023/04/04 01:00:19;;;;;;;;;;;4.90;66.20;;;;;;5055148;28;19952;-78
2023/04/04 01:02:46;;;;;;;;;;;4.90;66.40;;;;;;5048311;28;19940;-77
2023/04/04 01:05:13;;;;;;;;;;;4.90;66.50;;;;;;5059139;28;19964;-75
2023/04/04 01:07:40;;;;;;;;;;;4.90;66.50;;;;;;5059806;28;19928;-75
2023/04/04 01:10:07;;;;;;;;;;;4.90;66.50;;;;;;5055567;28;19931;-77
2023/04/04 01:12:33;;;;;;;;;;;4.80;66.50;;;;;;5058288;28;19936;-76
2023/04/04 01:15:00;;;;;;;;;;;4.80;66.60;;;;;;5057764;28;19936;-76
2023/04/04 01:17:28;;;;;;;;;;;4.80;66.70;;;;;;5055679;28;19929;-74
2023/04/04 01:19:59;;;;;;;;;;;4.80;66.80;;;;;;5051752;28;19929;-77
2023/04/04 01:22:27;;;;;;;;;;;4.70;66.80;;;;;;5053608;28;19946;-76
2023/04/04 01:24:54;;;;;;;;;;;4.70;66.90;;;;;;5049634;28;19957;-76
2023/04/04 01:27:22;;;;;;;;;;;4.70;67.00;;;;;;5053220;28;19935;-75
2023/04/04 01:29:49;;;;;;;;;;;4.70;67.10;;;;;;5052584;28;19932;-76
2023/04/04 01:32:18;;;;;;;;;;;4.70;67.10;;;;;;5052076;28;20030;-77
2023/04/04 01:34:51;;;;;;;;;;;4.70;67.30;;;;;;5052282;28;19990;-76
2023/04/04 01:37:20;;;;;;;;;;;4.70;67.40;;;;;;5055637;28;19954;-77
2023/04/04 01:39:48;;;;;;;;;;;4.60;67.40;;;;;;5053264;28;19932;-76
2023/04/04 01:42:15;;;;;;;;;;;4.60;67.40;;;;;;5051582;28;19936;-77
2023/04/04 01:44:43;;;;;;;;;;;4.60;67.50;;;;;;5051793;28;19928;-77
2023/04/04 01:47:12;;;;;;;;;;;4.60;67.60;;;;;;5053112;28;19928;-76
2023/04/04 01:49:38;;;;;;;;;;;4.60;67.60;;;;;;5050529;28;19951;-77
2023/04/04 01:52:06;;;;;;;;;;;4.60;67.70;;;;;;5053739;28;19939;-76
2023/04/04 01:54:34;;;;;;;;;;;4.50;67.70;;;;;;5052712;28;20009;-76
2023/04/04 01:57:01;;;;;;;;;;;4.50;67.70;;;;;;5058368;28;20321;-76
2023/04/04 01:59:27;;;;;;;;;;;4.50;67.80;;;;;;5052723;28;20107;-75
2023/04/04 02:01:56;;;;;;;;;;;4.40;67.80;;;;;;5051936;28;19936;-76
2023/04/04 02:04:23;;;;;;;;;;;4.40;67.80;;;;;;5056511;28;19935;-75
2023/04/04 02:06:51;;;;;;;;;;;4.40;67.90;;;;;;5051045;28;19929;-77
2023/04/04 02:09:17;;;;;;;;;;;4.40;68.10;;;;;;5055548;28;19954;-76
2023/04/04 02:11:44;;;;;;;;;;;4.30;68.00;;;;;;5052098;28;19959;-75
2023/04/04 02:14:11;;;;;;;;;;;4.30;68.00;;;;;;5053286;28;20464;-74
2023/04/04 02:16:37;;;;;;;;;;;4.30;68.00;;;;;;5056407;28;20413;-76
2023/04/04 02:19:05;;;;;;;;;;;4.30;68.10;;;;;;5058275;28;19932;-76
2023/04/04 02:21:32;;;;;;;;;;;4.30;68.20;;;;;;5054654;28;20344;-76
2023/04/04 02:23:58;;;;;;;;;;;4.20;68.10;;;;;;5051441;28;19929;-76
2023/04/04 02:26:25;;;;;;;;;;;4.30;68.20;;;;;;5058490;28;19932;-74
2023/04/04 02:28:51;;;;;;;;;;;4.30;68.20;;;;;;5054890;28;19940;-75
2023/04/04 02:31:18;;;;;;;;;;;4.20;68.10;;;;;;5058103;28;19939;-77
2023/04/04 02:33:45;;;;;;;;;;;4.20;68.90;;;;;;5047626;28;19940;-75
2023/04/04 02:36:13;;;;;;;;;;;4.20;68.30;;;;;;5055086;28;19984;-75
2023/04/04 02:38:39;;;;;;;;;;;4.20;68.30;;;;;;5057565;28;20526;-76
2023/04/04 02:41:06;;;;;;;;;;;4.10;68.30;;;;;;5055888;28;19924;-76
2023/04/04 02:43:32;;;;;;;;;;;4.10;68.30;;;;;;5050657;28;19936;-76
2023/04/04 02:45:59;;;;;;;;;;;4.10;68.40;;;;;;5049678;28;19932;-77
2023/04/04 02:48:26;;;;;;;;;;;4.10;68.50;;;;;;5054230;28;19929;-77
2023/04/04 02:50:52;;;;;;;;;;;4.10;68.60;;;;;;5052254;28;19932;-75
2023/04/04 02:53:21;;;;;;;;;;;4.00;68.60;;;;;;5054513;28;19928;-76
2023/04/04 02:55:47;;;;;;;;;;;4.00;68.60;;;;;;5053262;28;19933;-77
2023/04/04 02:58:14;;;;;;;;;;;4.00;68.70;;;;;;5053958;28;20481;-75
2023/04/04 03:00:40;;;;;;;;;;;4.00;68.80;;;;;;5049005;28;19928;-74
2023/04/04 03:03:07;;;;;;;;;;;4.00;68.80;;;;;;5053578;28;20325;-76
2023/04/04 03:05:34;;;;;;;;;;;3.90;68.80;;;;;;5052514;28;19976;-77
2023/04/04 03:08:01;;;;;;;;;;;4.00;68.90;;;;;;5052879;28;19932;-76
2023/04/04 03:10:29;;;;;;;;;;;3.90;68.90;;;;;;5053949;28;19928;-76
2023/04/04 03:12:56;;;;;;;;;;;3.90;68.90;;;;;;5054808;28;19982;-76
2023/04/04 03:15:23;;;;;;;;;;;3.80;68.90;;;;;;5050267;28;19928;-75
2023/04/04 03:17:49;;;;;;;;;;;3.80;69.00;;;;;;5050994;28;19940;-76
2023/04/04 03:20:16;;;;;;;;;;;3.80;69.00;;;;;;5054116;28;19936;-76
2023/04/04 03:22:42;;;;;;;;;;;3.80;68.90;;;;;;5052980;28;19928;-76
2023/04/04 03:25:09;;;;;;;;;;;3.80;69.00;;;;;;5051542;28;19939;-76
2023/04/04 03:27:38;;;;;;;;;;;3.70;68.90;;;;;;5049282;28;20386;-76
2023/04/04 03:30:06;;;;;;;;;;;3.70;68.90;;;;;;5052273;28;19935;-76
2023/04/04 03:32:32;;;;;;;;;;;3.70;69.00;;;;;;5051429;28;19929;-74
2023/04/04 03:34:59;;;;;;;;;;;3.60;69.00;;;;;;5049259;28;19928;-76
2023/04/04 03:37:25;;;;;;;;;;;3.70;69.10;;;;;;5048999;28;19936;-75
2023/04/04 03:39:52;;;;;;;;;;;3.70;69.20;;;;;;5051626;28;19940;-74
2023/04/04 03:42:18;;;;;;;;;;;3.60;69.20;;;;;;5052410;28;20679;-77
2023/04/04 03:44:46;;;;;;;;;;;3.60;69.20;;;;;;5047414;28;19935;-75
2023/04/04 03:47:13;;;;;;;;;;;3.60;69.30;;;;;;5054180;28;19935;-75
2023/04/04 03:49:40;;;;;;;;;;;3.50;69.30;;;;;;5048458;28;19932;-75
2023/04/04 03:52:06;;;;;;;;;;;3.60;69.40;;;;;;5053881;28;19960;-77
2023/04/04 03:54:33;;;;;;;;;;;3.60;69.40;;;;;;5053899;28;20421;-75
2023/04/04 03:57:00;;;;;;;;;;;3.50;69.30;;;;;;5053639;28;19936;-76
2023/04/04 03:59:26;;;;;;;;;;;3.50;69.30;;;;;;5055587;28;19932;-75
2023/04/04 04:01:54;;;;;;;;;;;3.50;69.40;;;;;;5055876;28;19964;-75
2023/04/04 04:04:21;;;;;;;;;;;3.50;69.40;;;;;;5055320;28;19932;-74
2023/04/04 04:06:48;;;;;;;;;;;3.50;69.50;;;;;;5057688;28;19939;-76
2023/04/04 04:09:14;;;;;;;;;;;3.50;69.50;;;;;;5055394;28;20363;-76
2023/04/04 04:11:41;;;;;;;;;;;3.40;69.50;;;;;;5054816;28;19932;-74
2023/04/04 04:14:07;;;;;;;;;;;3.40;69.50;;;;;;5054320;28;19938;-77
2023/04/04 04:16:34;;;;;;;;;;;3.40;69.50;;;;;;5061118;28;19939;-76
2023/04/04 04:19:02;;;;;;;;;;;3.40;69.60;;;;;;5062072;28;19935;-76
2023/04/04 04:21:29;;;;;;;;;;;3.40;69.70;;;;;;5062855;28;19928;-76
2023/04/04 04:23:55;;;;;;;;;;;3.30;69.70;;;;;;5054719;28;19933;-75
2023/04/04 04:26:22;;;;;;;;;;;3.30;69.90;;;;;;5056295;28;20469;-74
2023/04/04 04:28:49;;;;;;;;;;;3.30;69.90;;;;;;5055535;28;19933;-75
2023/04/04 04:31:15;;;;;;;;;;;3.30;70.00;;;;;;5056829;28;19986;-76
2023/04/04 04:33:42;;;;;;;;;;;3.20;70.00;;;;;;5058643;28;19936;-74
2023/04/04 04:36:10;;;;;;;;;;;3.20;70.10;;;;;;5060394;28;19928;-76
2023/04/04 04:38:36;;;;;;;;;;;3.20;70.20;;;;;;5053826;28;20622;-76
2023/04/04 04:41:03;;;;;;;;;;;3.20;70.30;;;;;;5053115;28;19928;-74
2023/04/04 04:43:30;;;;;;;;;;;3.20;70.40;;;;;;5056315;28;20395;-75
2023/04/04 04:45:56;;;;;;;;;;;3.20;70.40;;;;;;5059745;28;20579;-75
2023/04/04 04:48:23;;;;;;;;;;;3.10;70.40;;;;;;5053517;28;19936;-75
2023/04/04 04:50:49;;;;;;;;;;;3.10;70.50;;;;;;5056402;28;19929;-75
2023/04/04 04:53:17;;;;;;;;;;;3.10;70.60;;;;;;5052701;28;20413;-75
2023/04/04 04:55:45;;;;;;;;;;;3.10;70.60;;;;;;5056198;28;20363;-75
2023/04/04 04:58:12;;;;;;;;;;;3.00;70.60;;;;;;5054764;28;19928;-74
2023/04/04 05:00:39;;;;;;;;;;;3.00;70.70;;;;;;5049550;28;19936;-75
2023/04/04 05:03:06;;;;;;;;;;;3.00;70.80;;;;;;5050974;28;20871;-76
2023/04/04 05:05:33;;;;;;;;;;;3.00;70.80;;;;;;5051612;28;19928;-76
2023/04/04 05:08:01;;;;;;;;;;;3.00;70.90;;;;;;5055139;28;19932;-75
2023/04/04 05:10:29;;;;;;;;;;;2.90;71.00;;;;;;5056201;28;19986;-75
2023/04/04 05:12:55;;;;;;;;;;;2.90;70.90;;;;;;5054380;28;19929;-75
2023/04/04 05:15:24;;;;;;;;;;;2.90;70.90;;;;;;5051447;28;19966;-75
2023/04/04 05:17:51;;;;;;;;;;;2.90;71.00;;;;;;5053592;28;19997;-74
2023/04/04 05:20:17;;;;;;;;;;;2.90;71.10;;;;;;5050354;28;19932;-74
2023/04/04 05:22:44;;;;;;;;;;;2.90;71.10;;;;;;5054524;28;19979;-74
2023/04/04 05:25:11;;;;;;;;;;;2.90;71.10;;;;;;5051111;28;20769;-74
2023/04/04 05:27:39;;;;;;;;;;;2.80;71.00;;;;;;5053418;28;20219;-76
2023/04/04 05:30:06;;;;;;;;;;;2.80;71.10;;;;;;5056463;28;19933;-75
2023/04/04 05:32:33;;;;;;;;;;;2.80;71.10;;;;;;5057345;28;20537;-76
2023/04/04 05:34:59;;;;;;;;;;;2.80;71.10;;;;;;5049716;28;19958;-76
2023/04/04 05:37:26;;;;;;;;;;;2.80;71.10;;;;;;5054577;28;19936;-74
2023/04/04 05:39:53;;;;;;;;;;;2.80;71.20;;;;;;5054309;28;20130;-74
2023/04/04 05:42:20;;;;;;;;;;;2.80;71.20;;;;;;5054628;28;19924;-76
2023/04/04 05:44:48;;;;;;;;;;;2.80;71.40;;;;;;5053099;28;19932;-74
2023/04/04 05:47:15;;;;;;;;;;;2.80;71.30;;;;;;5054651;28;19928;-70
2023/04/04 05:49:41;;;;;;;;;;;2.80;71.40;;;;;;5057177;28;20606;-70
2023/04/04 05:52:09;;;;;;;;;;;2.70;71.30;;;;;;5063118;28;19932;-72
2023/04/04 05:54:35;;;;;;;;;;;2.70;71.40;;;;;;5047811;28;20015;-72
2023/04/04 05:57:02;;;;;;;;;;;2.70;71.40;;;;;;5060553;28;20318;-70
2023/04/04 05:59:29;;;;;;;;;;;2.70;71.30;;;;;;5055791;28;19943;-72
2023/04/04 06:01:57;;;;;;;;;;;2.70;71.40;;;;;;5057010;28;19947;-71
2023/04/04 06:04:23;;;;;;;;;;;2.70;71.40;;;;;;5058502;28;19932;-69
2023/04/04 06:06:50;;;;;;;;;;;2.70;71.40;;;;;;5055160;28;20486;-71
2023/04/04 06:09:17;;;;;;;;;;;2.60;71.30;;;;;;5060070;28;19928;-70
2023/04/04 06:11:44;;;;;;;;;;;2.70;71.40;;;;;;5059477;28;20340;-72
2023/04/04 06:14:10;;;;;;;;;;;2.70;71.50;;;;;;5048284;28;19935;-69
2023/04/04 06:16:37;;;;;;;;;;;2.70;71.60;;;;;;5056017;28;19939;-73
2023/04/04 06:19:05;;;;;;;;;;;2.70;71.50;;;;;;5050631;28;19936;-70
2023/04/04 06:21:31;;;;;;;;;;;2.60;71.40;;;;;;5048673;28;20027;-70
2023/04/04 06:23:58;;;;;;;;;;;2.70;71.40;;;;;;5056616;28;19929;-72
2023/04/04 06:26:25;;;;;;;;;;;2.70;71.30;;;;;;5061401;28;20443;-70
2023/04/04 06:28:52;;;;;;;;;;;2.60;71.20;;;;;;5059289;28;20707;-69
2023/04/04 06:31:18;;;;;;;;;;;2.60;71.20;;;;;;5057099;28;20015;-68
2023/04/04 06:33:45;;;;;;;;;;;2.60;71.10;;;;;;5055381;28;19933;-70
2023/04/04 06:36:13;;;;;;;;;;;2.60;71.10;;;;;;5052106;28;19932;-67
2023/04/04 06:38:39;;;;;;;;;;;2.60;71.20;;;;;;5050840;28;19929;-69
2023/04/04 06:41:06;;;;;;;;;;;2.60;71.20;;;;;;5058728;28;20461;-69
2023/04/04 06:43:33;;;;;;;;;;;2.60;71.20;;;;;;5059427;28;19934;-73
2023/04/04 06:45:59;;;;;;;;;;;2.60;71.20;;;;;;5051010;28;19940;-70
2023/04/04 06:48:26;;;;;;;;;;;2.60;71.20;;;;;;5053298;28;19929;-69
2023/04/04 06:50:52;;;;;;;;;;;2.50;71.10;;;;;;5056617;28;20002;-68
2023/04/04 06:53:22;;;;;;;;;;;2.60;71.10;;;;;;5045743;28;19933;-69
2023/04/04 06:55:49;;;;;;;;;;;2.60;71.10;;;;;;5053115;28;20454;-72
2023/04/04 06:58:16;;;;;;;;;;;2.60;71.00;;;;;;5048506;28;19928;-70
2023/04/04 07:00:42;;;;;;;;;;;2.60;71.10;;;;;;5047468;28;19932;-69
2023/04/04 07:03:09;;;;;;;;;;;2.60;71.10;;;;;;5055603;28;20388;-71
2023/04/04 07:05:38;;;;;;;;;;;2.60;71.10;;;;;;5057951;28;19978;-71
2023/04/04 07:08:05;;;;;;;;;;;2.60;71.10;;;;;;5051008;28;19928;-71
2023/04/04 07:10:33;;;;;;;;;;;2.60;71.20;;;;;;5048713;28;19932;-70
2023/04/04 07:12:59;;;;;;;;;;;2.60;71.20;;;;;;5054165;28;20311;-70
2023/04/04 07:15:26;;;;;;;;;;;2.60;71.10;;;;;;5050293;28;20019;-69
2023/04/04 07:17:53;;;;;;;;;;;2.60;71.10;;;;;;5053156;28;19929;-69
2023/04/04 07:20:20;;;;;;;;;;;2.60;70.90;;;;;;5053430;28;19924;-70
2023/04/04 07:22:46;;;;;;;;;;;2.60;70.90;;;;;;5054093;28;19924;-67
2023/04/04 07:25:13;;;;;;;;;;;2.60;70.80;;;;;;5049913;28;19935;-69
2023/04/04 07:27:41;;;;;;;;;;;2.60;70.80;;;;;;5053869;28;19940;-71
2023/04/04 07:30:08;;;;;;;;;;;2.60;70.90;;;;;;5052450;28;20033;-69
2023/04/04 07:32:34;;;;;;;;;;;2.60;70.70;;;;;;5050936;28;19935;-70
2023/04/04 07:35:01;;;;;;;;;;;2.60;70.70;;;;;;5052623;28;19928;-70
2023/04/04 07:37:27;;;;;;;;;;;2.60;70.60;;;;;;5052932;28;20839;-70
2023/04/04 07:39:54;;;;;;;;;;;2.60;70.50;;;;;;5042012;28;19932;-71
2023/04/04 07:42:22;;;;;;;;;;;2.60;70.30;;;;;;5045565;28;19933;-69
2023/04/04 07:44:51;;;;;;;;;;;2.60;70.20;;;;;;5046197;28;20030;-72
2023/04/04 07:47:18;;;;;;;;;;;2.70;70.20;;;;;;5048272;28;19935;-71
2023/04/04 07:49:44;;;;;;;;;;;2.70;70.10;;;;;;5047549;28;21835;-70
2023/04/04 07:52:11;;;;;;;;;;;2.70;70.10;;;;;;5052082;28;19928;-70
2023/04/04 07:54:39;;;;;;;;;;;2.70;70.10;;;;;;5040048;28;20010;-69
2023/04/04 07:57:08;;;;;;;;;;;2.70;70.00;;;;;;5043058;28;19939;-69
2023/04/04 07:59:35;;;;;;;;;;;2.70;69.90;;;;;;5046297;28;19968;-69
2023/04/04 08:02:02;;;;;;;;;;;2.70;69.60;;;;;;5045347;28;19940;-70
2023/04/04 08:04:29;;;;;;;;;;;2.80;69.60;;;;;;5049939;28;19939;-70
2023/04/04 08:06:55;;;;;;;;;;;2.80;70.30;;;;;;5050236;28;19928;-69
2023/04/04 08:09:22;;;;;;;;;;;2.80;69.50;;;;;;5045092;28;20402;-71
2023/04/04 08:11:48;;;;;;;;;;;2.80;69.40;;;;;;5054872;28;19933;-73
2023/04/04 08:14:15;;;;;;;;;;;2.80;69.40;;;;;;5046651;28;19936;-72
2023/04/04 08:16:41;;;;;;;;;;;2.90;69.40;;;;;;5053940;28;19989;-70
2023/04/04 08:19:09;;;;;;;;;;;2.90;69.40;;;;;;5052523;28;19928;-72
2023/04/04 08:21:36;;;;;;;;;;;2.90;69.30;;;;;;5049335;28;19929;-73
2023/04/04 08:24:02;;;;;;;;;;;2.90;69.30;;;;;;5048027;28;19932;-69
2023/04/04 08:26:29;;;;;;;;;;;3.00;69.30;;;;;;5046853;28;19936;-69
2023/04/04 08:28:55;;;;;;;;;;;3.00;69.20;;;;;;5048811;28;19936;-71
2023/04/04 08:31:22;;;;;;;;;;;3.00;69.10;;;;;;5046592;28;20410;-71
2023/04/04 08:33:49;;;;;;;;;;;3.10;68.90;;;;;;5053085;28;19928;-74
2023/04/04 08:36:17;;;;;;;;;;;3.10;68.80;;;;;;5050577;28;19928;-71
2023/04/04 08:38:44;;;;;;;;;;;3.20;68.80;;;;;;5045573;28;20039;-70
2023/04/04 08:41:11;;;;;;;;;;;3.20;68.50;;;;;;5044236;28;19929;-70
2023/04/04 08:43:40;;;;;;;;;;;3.30;68.30;;;;;;5040932;28;20428;-73
2023/04/04 08:46:08;;;;;;;;;;;3.40;68.20;;;;;;5046705;28;20021;-74
2023/04/04 08:48:35;;;;;;;;;;;3.50;68.10;;;;;;5049382;28;19963;-72
2023/04/04 08:51:03;;;;;;;;;;;3.50;67.90;;;;;;5044877;28;20014;-71
2023/04/04 08:53:33;;;;;;;;;;;3.60;67.70;;;;;;5050303;28;19932;-72
2023/04/04 08:56:00;;;;;;;;;;;3.60;67.60;;;;;;5051997;28;19943;-71
2023/04/04 08:58:27;;;;;;;;;;;3.70;67.40;;;;;;5058272;28;20469;-71
2023/04/04 09:00:53;;;;;;;;;;;3.80;67.40;;;;;;5052886;28;19929;-71
2023/04/04 09:03:23;;;;;;;;;;;3.80;67.10;;;;;;5046748;28;19940;-68
2023/04/04 09:05:49;;;;;;;;;;;3.90;67.10;;;;;;5043591;28;19933;-70
2023/04/04 09:08:17;;;;;;;;;;;4.00;67.00;;;;;;5050967;28;19936;-69
2023/04/04 09:10:45;;;;;;;;;;;4.00;66.20;;;;;;5050479;28;19950;-72
2023/04/04 09:13:12;;;;;;;;;;;4.10;65.50;;;;;;5046262;28;19939;-71
2023/04/04 09:15:41;;;;;;;;;;;4.20;65.70;;;;;;5040459;28;19933;-72
2023/04/04 09:18:07;;;;;;;;;;;4.30;65.70;;;;;;5042374;28;19933;-72
2023/04/04 09:20:39;;;;;;;;;;;4.30;65.70;;;;;;5039776;28;19928;-71
2023/04/04 09:23:06;;;;;;;;;;;4.40;65.70;;;;;;5045730;28;19948;-71
2023/04/04 09:25:33;;;;;;;;;;;4.40;65.40;;;;;;5047759;28;19964;-70
2023/04/04 09:28:03;;;;;;;;;;;4.50;65.00;;;;;;5050696;28;19939;-72
2023/04/04 09:30:30;;;;;;;;;;;4.50;64.80;;;;;;5047038;28;19940;-72
2023/04/04 09:32:57;;;;;;;;;;;4.60;65.20;;;;;;5055506;28;20784;-72
2023/04/04 09:35:23;;;;;;;;;;;4.70;64.90;;;;;;5048717;28;19928;-73
2023/04/04 09:37:51;;;;;;;;;;;4.70;64.70;;;;;;5052706;28;19955;-73
2023/04/04 09:40:18;;;;;;;;;;;4.70;64.60;;;;;;5051997;28;19936;-73
2023/04/04 09:42:44;;;;;;;;;;;4.80;64.40;;;;;;5042961;28;19928;-73
2023/04/04 09:45:14;;;;;;;;;;;4.90;64.10;;;;;;5046427;28;19928;-71
2023/04/04 09:47:41;;;;;;;;;;;4.90;63.40;;;;;;5052099;28;20545;-73
2023/04/04 09:50:08;;;;;;;;;;;5.00;63.90;;;;;;5051150;28;19932;-72
2023/04/04 09:52:35;;;;;;;;;;;5.00;62.80;;;;;;5047570;28;19933;-73
2023/04/04 09:55:03;;;;;;;;;;;5.10;62.90;;;;;;5050746;28;19933;-76
2023/04/04 09:57:30;;;;;;;;;;;5.10;62.30;;;;;;5051675;28;20348;-74
2023/04/04 09:59:57;;;;;;;;;;;5.20;61.90;;;;;;5046949;28;19942;-73
2023/04/04 10:02:25;;;;;;;;;;;5.30;61.80;;;;;;5045716;28;20059;-73
2023/04/04 10:04:52;;;;;;;;;;;5.30;61.60;;;;;;5053454;28;19939;-71
2023/04/04 10:07:20;;;;;;;;;;;5.40;62.20;;;;;;5051015;28;19928;-74
2023/04/04 10:09:49;;;;;;;;;;;5.40;61.50;;;;;;5050526;28;19974;-72
2023/04/04 10:12:16;;;;;;;;;;;5.40;61.50;;;;;;5047320;28;19971;-72
2023/04/04 10:14:43;;;;;;;;;;;5.50;61.80;;;;;;5036226;28;19933;-75
2023/04/04 10:17:10;;;;;;;;;;;5.50;60.40;;;;;;5052048;28;19936;-74
2023/04/04 10:19:38;;;;;;;;;;;5.60;61.20;;;;;;5054125;28;19929;-75
2023/04/04 10:22:05;;;;;;;;;;;5.60;61.20;;;;;;5052989;28;19928;-77
2023/04/04 10:24:31;;;;;;;;;;;5.70;60.80;;;;;;5053228;28;19937;-72
2023/04/04 10:26:58;;;;;;;;;;;5.70;61.00;;;;;;5053287;28;19940;-73
2023/04/04 10:29:25;;;;;;;;;;;5.80;60.60;;;;;;5051438;28;19929;-72
2023/04/04 10:31:57;;;;;;;;;;;5.90;60.30;;;;;;5055476;28;19928;-73
2023/04/04 10:34:25;;;;;;;;;;;5.90;60.90;;;;;;5051303;28;19928;-74
2023/04/04 10:36:54;;;;;;;;;;;5.90;59.90;;;;;;5052329;28;21246;-71
2023/04/04 10:39:23;;;;;;;;;;;6.00;59.90;;;;;;5055560;28;19936;-72
2023/04/04 10:41:50;;;;;;;;;;;6.10;60.60;;;;;;5059336;28;20415;-71
2023/04/04 10:44:20;;;;;;;;;;;6.10;59.90;;;;;;5055328;28;19932;-73
2023/04/04 10:46:48;;;;;;;;;;;6.20;61.50;;;;;;5052739;28;19940;-73
2023/04/04 10:49:15;;;;;;;;;;;6.30;59.30;;;;;;5057407;28;19929;-71
2023/04/04 10:51:42;;;;;;;;;;;6.30;59.50;;;;;;5053722;28;20002;-71
2023/04/04 10:54:11;;;;;;;;;;;6.30;59.60;;;;;;5056854;28;19935;-72
2023/04/04 10:56:37;;;;;;;;;;;6.40;59.10;;;;;;5052731;28;19929;-72
2023/04/04 10:59:12;;;;;;;;;;;6.40;59.00;;;;;;5056260;28;19932;-71
2023/04/04 11:01:48;;;;;;;;;;;6.50;59.50;;;;;;5055610;28;19929;-71
2023/04/04 11:04:15;;;;;;;;;;;6.60;59.20;;;;;;5046300;28;20784;-72
2023/04/04 11:07:00;;;;;;;;;;;6.70;59.60;;;;;;5047942;28;19936;-71
2023/04/04 11:09:47;;;;;;;;;;;6.70;59.00;;;;;;5049667;28;19929;-72
2023/04/04 11:12:18;;;;;;;;;;;6.80;58.00;;;;;;5052928;28;19963;-73
2023/04/04 11:14:54;;;;;;;;;;;6.90;58.50;;;;;;5048523;28;20351;-74
2023/04/04 11:17:25;;;;;;;;;;;6.90;58.60;;;;;;5056036;28;20386;-72
2023/04/04 11:19:58;;;;;;;;;;;6.90;57.70;;;;;;5055732;28;19935;-72
2023/04/04 11:22:24;;;;;;;;;;;7.00;57.90;;;;;;5054822;28;20322;-74
2023/04/04 11:25:00;;;;;;;;;;;7.10;58.20;;;;;;5048382;28;20465;-72
2023/04/04 11:27:28;;;;;;;;;;;7.10;57.50;;;;;;5054713;28;22324;-73
2023/04/04 11:29:58;;;;;;;;;;;7.10;57.90;;;;;;5048104;28;19925;-73
2023/04/04 11:32:30;;;;;;;;;;;7.20;57.50;;;;;;5050515;28;19932;-75
2023/04/04 11:34:56;;;;;;;;;;;7.20;57.30;;;;;;5047771;28;20353;-75
2023/04/04 11:37:23;;;;;;;;;;;7.30;56.00;;;;;;5055304;28;19928;-73
2023/04/04 11:39:55;;;;;;;;;;;7.40;56.40;;;;;;5053201;28;20157;-75
2023/04/04 11:42:23;;;;;;;;;;;7.40;56.70;;;;;;5049917;28;20019;-73
2023/04/04 11:45:02;;;;;;;;;;;7.40;57.80;;;;;;5057735;28;19933;-76
2023/04/04 11:47:29;;;;;;;;;;;7.50;56.50;;;;;;5050414;28;19935;-75
2023/04/04 11:49:56;;;;;;;;;;;7.60;56.20;;;;;;5041235;28;19941;-73
2023/04/04 11:52:24;;;;;;;;;;;7.60;57.00;;;;;;5054010;28;20352;-74
2023/04/04 11:54:51;;;;;;;;;;;7.70;56.80;;;;;;5052025;28;19938;-72
2023/04/04 11:57:18;;;;;;;;;;;7.80;56.40;;;;;;5050448;28;19976;-73
2023/04/04 11:59:47;;;;;;;;;;;7.80;55.70;;;;;;5054946;28;20015;-73
2023/04/04 12:02:15;;;;;;;;;;;7.90;55.90;;;;;;5057688;28;19929;-72
2023/04/04 12:04:43;;;;;;;;;;;7.90;56.60;;;;;;5050070;28;20043;-73
2023/04/04 12:07:10;;;;;;;;;;;8.00;56.70;;;;;;5041706;28;20481;-73
2023/04/04 12:09:36;;;;;;;;;;;8.10;55.50;;;;;;5047825;28;19935;-74
2023/04/04 12:12:03;;;;;;;;;;;8.10;56.30;;;;;;5057370;28;19928;-74
2023/04/04 12:14:32;;;;;;;;;;;8.10;55.60;;;;;;5050036;28;20743;-74
2023/04/04 12:17:02;;;;;;;;;;;8.20;55.40;;;;;;5052826;28;19929;-74
2023/04/04 12:19:30;;;;;;;;;;;8.20;56.90;;;;;;5049557;28;19928;-74
2023/04/04 12:21:57;;;;;;;;;;;8.30;56.20;;;;;;5062755;28;19936;-73
2023/04/04 12:24:24;;;;;;;;;;;8.30;56.20;;;;;;5053383;28;19928;-73
2023/04/04 12:26:51;;;;;;;;;;;8.40;56.00;;;;;;5052033;28;19932;-74
2023/04/04 12:29:20;;;;;;;;;;;8.40;56.50;;;;;;5059938;28;20170;-74
2023/04/04 12:31:47;;;;;;;;;;;8.40;56.90;;;;;;5051049;28;19929;-73
2023/04/04 12:34:18;;;;;;;;;;;8.50;54.40;;;;;;5058449;28;19928;-72
2023/04/04 12:36:46;;;;;;;;;;;8.50;54.50;;;;;;5055783;28;20019;-73
2023/04/04 12:39:15;;;;;;;;;;;8.60;54.30;;;;;;5054219;28;19935;-72
2023/04/04 12:41:47;;;;;;;;;;;8.70;54.50;;;;;;5046278;28;19936;-71
2023/04/04 12:44:25;;;;;;;;;;;8.70;55.40;;;;;;5053425;28;19956;-72
2023/04/04 12:46:51;;;;;;;;;;;8.70;56.00;;;;;;5059907;28;19928;-73
2023/04/04 12:49:21;;;;;;;;;;;8.70;54.30;;;;;;5060195;28;20930;-74
2023/04/04 12:51:48;;;;;;;;;;;8.80;54.00;;;;;;5045417;28;20046;-73
2023/04/04 12:54:25;;;;;;;;;;;8.80;54.30;;;;;;5049947;28;19924;-72
2023/04/04 12:56:54;;;;;;;;;;;8.90;54.50;;;;;;5058147;28;19929;-72
2023/04/04 12:59:21;;;;;;;;;;;8.90;53.70;;;;;;5057233;28;19940;-73
2023/04/04 13:01:48;;;;;;;;;;;8.90;54.20;;;;;;5048682;28;20742;-73
2023/04/04 13:04:16;;;;;;;;;;;9.20;54.50;;;;;;5051771;28;19936;-71
2023/04/04 13:06:46;;;;;;;;;;;9.70;52.50;;;;;;5054873;28;19936;-70
2023/04/04 13:09:16;;;;;;;;;;;10.00;52.20;;;;;;5051450;28;19935;-73
2023/04/04 13:11:55;;;;;;;;;;;10.30;51.90;;;;;;5051854;28;19929;-71
2023/04/04 13:14:22;;;;;;;;;;;10.50;51.60;;;;;;5043837;28;19928;-68
2023/04/04 13:17:01;;;;;;;;;;;10.70;51.50;;;;;;5054962;28;19958;-71
2023/04/04 13:19:28;;;;;;;;;;;10.90;51.30;;;;;;5048579;28;20639;-70
2023/04/04 13:21:56;;;;;;;;;;;11.00;50.70;;;;;;5049432;28;19928;-72
2023/04/04 13:24:22;;;;;;;;;;;11.10;50.50;;;;;;5053862;28;19937;-69
2023/04/04 13:26:49;;;;;;;;;;;11.20;50.40;;;;;;5056179;28;19932;-70
2023/04/04 13:29:15;;;;;;;;;;;11.30;50.10;;;;;;5045438;28;20266;-70
2023/04/04 13:31:42;;;;;;;;;;;11.30;49.80;;;;;;5051384;28;20390;-70
2023/04/04 13:34:08;;;;;;;;;;;11.40;49.80;;;;;;5054655;28;20458;-71
2023/04/04 13:36:35;;;;;;;;;;;11.50;49.70;;;;;;5051361;28;20622;-70
2023/04/04 13:39:03;;;;;;;;;;;11.50;49.50;;;;;;5047535;28;19928;-69
2023/04/04 13:41:29;;;;;;;;;;;11.50;49.30;;;;;;5049832;28;19935;-72
2023/04/04 13:43:56;;;;;;;;;;;11.60;48.60;;;;;;5049846;28;19975;-71
2023/04/04 13:46:22;;;;;;;;;;;11.60;48.40;;;;;;5053842;28;19936;-70
2023/04/04 13:48:49;;;;;;;;;;;11.70;48.90;;;;;;5059088;28;20332;-71
2023/04/04 13:51:15;;;;;;;;;;;11.70;48.90;;;;;;5056172;28;19928;-71
2023/04/04 13:53:43;;;;;;;;;;;11.70;48.90;;;;;;5052024;28;19929;-71
2023/04/04 13:56:11;;;;;;;;;;;11.70;48.80;;;;;;5056324;28;19929;-69
2023/04/04 13:58:38;;;;;;;;;;;11.80;48.90;;;;;;5055606;28;19928;-71
2023/04/04 14:01:05;;;;;;;;;;;11.80;49.00;;;;;;5058963;28;20716;-72
2023/04/04 14:03:32;;;;;;;;;;;11.80;49.20;;;;;;5059173;28;19929;-72
2023/04/04 14:05:58;;;;;;;;;;;11.80;49.00;;;;;;5057140;28;20035;-70
2023/04/04 14:08:25;;;;;;;;;;;11.90;48.70;;;;;;5061513;28;19928;-69
2023/04/04 14:10:51;;;;;;;;;;;11.90;48.50;;;;;;5056571;28;19932;-69
2023/04/04 14:13:19;;;;;;;;;;;11.90;48.70;;;;;;5045998;28;19924;-72
2023/04/04 14:15:47;;;;;;;;;;;12.00;49.30;;;;;;5054616;28;20066;-70
2023/04/04 14:18:14;;;;;;;;;;;12.10;49.60;;;;;;5059313;28;20413;-72
2023/04/04 14:20:40;;;;;;;;;;;12.00;50.00;;;;;;5055403;28;20063;-69
2023/04/04 14:23:08;;;;;;;;;;;12.10;50.30;;;;;;5058830;28;19928;-72
2023/04/04 14:25:34;;;;;;;;;;;12.10;50.60;;;;;;5055761;28;20035;-72
2023/04/04 14:28:01;;;;;;;;;;;12.10;50.60;;;;;;5058949;28;20035;-70
2023/04/04 14:30:29;;;;;;;;;;;12.20;50.90;;;;;;5053971;28;19936;-69